메인 페이지
METAR-TAF:

METAR-TAF

공항 :

Vance Air Force Base, 오클라호마, 미국

위도: 36-20N, 경도: 097-55W, 고도: 398m

현재 날씨관측

예보는 6 시간 37분 전, 20:56시(UTC)에 발표되었습니다.
남동11kt
온도 19°C
습도 32%
기압 1015 hPa
시정: 16.1km
고도 25000ft 상공 구름 조금

METAR: KEND 162056Z 14011KT 10SM FEW250 19/02 A2998 RMK AO2A SLP153 T01880017 57033

시각: 21:33 (03:33 UTC)

예보

예보는 4 시간 4분 전, 23:29시(UTC)에 발표되었습니다.
예보 대상 시간: 16일 23시부터 18일 01시까지 (UTC)
남남동9kt
시정 10km 이상
맑음
전환 중
17일 11시부터 17일 12시까지 (UTC)
북동9kt
시정 10km 이상
맑음
전환 중
17일 15시부터 17일 16시까지 (UTC)
북북동10kt, 순간 최대 풍속 20kt
시정 10km 이상
고도 2000ft 상공 구름 조금
전환 중
17일 17시부터 17일 18시까지 (UTC)
북북동15kt, 순간 최대 풍속 20kt
시정: 1818m
고도 1000ft 상공 구름 보통
고도 2000ft 상공 흐림

TAF: KEND 162329Z 1623/1801 16009KT 9999 SKC QNH2992INS BECMG 1711/1712 04009KT 9999 SKC QNH2996INS BECMG 1715/1716 03010G20KT 9999 FEW020 QNH3004INS BECMG 1717/1718 03015G20KT 9999 SCT010 OVC020 QNH3006INS TX17/1720Z TN03/1712Z LAST NO AMDS AFT 1700 NEXT 1818

4,000개 이상의 공항 관측 자료 및 예보 (METAR 및 TAF 보고).

지도상에서 검색 가능한 기상관측소가 노란 점과 빨간 점으로 표시되어 있습니다.

기상관측소 명을 보려면 표시 위로 마우스를 이동하세요.

날씨 관측과 예보를 보려면 클릭하세요.

지도 변경 : 확대하려면 엑스 표시가 있는 녹색 버튼, 축소하려면 빼기 표시가 있는 녹색 버튼, 다음 페이지의 지도를 보려면 녹색 화살표를 클릭하세요.


METAR-TAF: